createdAt,value
2023-04-16T00:01:35.782Z,35.17
2023-04-16T00:04:03.272Z,34.85
2023-04-16T00:06:30.439Z,35.42
2023-04-16T00:08:57.391Z,35.76
2023-04-16T00:11:24.284Z,35.76
2023-04-16T00:13:51.150Z,35.12
2023-04-16T00:16:18.027Z,35.45
2023-04-16T00:18:44.832Z,35.96
2023-04-16T00:21:11.856Z,36.18
2023-04-16T00:23:38.656Z,35.20
2023-04-16T00:26:05.431Z,35.76
2023-04-16T00:28:32.196Z,36.03
2023-04-16T00:30:59.599Z,35.76
2023-04-16T00:33:26.546Z,36.29
2023-04-16T00:35:53.448Z,36.40
2023-04-16T00:38:20.942Z,36.56
2023-04-16T00:40:47.751Z,36.58
2023-04-16T00:43:25.598Z,36.33
2023-04-16T00:45:53.423Z,37.12
2023-04-16T00:48:20.785Z,36.66
2023-04-16T00:50:48.522Z,37.19
2023-04-16T00:53:15.661Z,37.21
2023-04-16T00:55:42.783Z,36.97
2023-04-16T00:58:09.693Z,37.33
2023-04-16T01:00:36.565Z,36.74
2023-04-16T01:03:03.772Z,37.04
2023-04-16T01:05:31.128Z,37.79
2023-04-16T01:08:01.354Z,37.63
2023-04-16T01:10:28.341Z,37.50
2023-04-16T01:12:55.398Z,37.42
2023-04-16T01:15:22.369Z,37.18
2023-04-16T01:17:49.326Z,37.68
2023-04-16T01:20:16.257Z,37.78
2023-04-16T01:22:43.170Z,37.67
2023-04-16T01:25:13.881Z,36.90
2023-04-16T01:27:40.813Z,37.74
2023-04-16T01:30:08.414Z,37.35
2023-04-16T01:32:46.646Z,37.81
2023-04-16T01:35:13.532Z,37.71
2023-04-16T01:37:40.534Z,38.31
2023-04-16T01:40:08.227Z,38.86
2023-04-16T01:42:35.089Z,38.12
2023-04-16T01:45:02.052Z,37.81
2023-04-16T01:47:30.710Z,38.08
2023-04-16T01:49:57.548Z,38.42
2023-04-16T01:52:24.463Z,38.04
2023-04-16T01:54:52.018Z,37.99
2023-04-16T01:57:19.070Z,37.74
2023-04-16T01:59:46.361Z,38.42
2023-04-16T02:02:14.965Z,38.62
2023-04-16T02:04:43.210Z,38.24
2023-04-16T02:07:10.533Z,39.12
2023-04-16T02:09:38.051Z,39.37
2023-04-16T02:12:06.837Z,38.67
2023-04-16T02:14:34.269Z,38.68
2023-04-16T02:17:01.830Z,38.38
2023-04-16T02:19:37.319Z,38.61
2023-04-16T02:22:04.861Z,38.67
2023-04-16T02:24:31.817Z,39.52
2023-04-16T02:27:00.231Z,39.05
2023-04-16T02:29:27.071Z,39.18
2023-04-16T02:32:01.309Z,38.87
2023-04-16T02:34:30.297Z,39.08
2023-04-16T02:36:58.507Z,39.24
2023-04-16T02:39:25.608Z,39.04
2023-04-16T02:41:53.430Z,39.50
2023-04-16T02:44:21.187Z,40.12
2023-04-16T02:46:48.464Z,40.61
2023-04-16T02:49:16.003Z,40.33
2023-04-16T02:51:42.783Z,40.29
2023-04-16T02:54:09.706Z,40.93
2023-04-16T02:56:36.497Z,40.74
2023-04-16T02:59:03.477Z,40.86
2023-04-16T03:01:30.453Z,40.45
2023-04-16T03:03:57.549Z,40.94
2023-04-16T03:06:24.518Z,41.17
2023-04-16T03:08:51.345Z,41.16
2023-04-16T03:11:18.262Z,40.95
2023-04-16T03:13:45.196Z,39.84
2023-04-16T03:16:12.181Z,40.84
2023-04-16T03:18:39.417Z,41.05
2023-04-16T03:21:06.440Z,40.99
2023-04-16T03:23:33.745Z,40.70
2023-04-16T03:26:00.642Z,40.67
2023-04-16T03:28:28.112Z,40.54
2023-04-16T03:30:54.976Z,41.14
2023-04-16T03:33:22.905Z,41.04
2023-04-16T03:35:58.710Z,41.25
2023-04-16T03:38:28.622Z,41.35
2023-04-16T03:40:57.267Z,41.58
2023-04-16T03:43:24.284Z,42.04
2023-04-16T03:45:51.086Z,41.76
2023-04-16T03:48:20.929Z,41.54
2023-04-16T03:50:48.209Z,41.96
2023-04-16T03:53:16.742Z,41.39
2023-04-16T03:55:43.668Z,41.50
2023-04-16T03:58:10.798Z,41.61
2023-04-16T04:00:37.752Z,41.35
2023-04-16T04:03:12.787Z,40.94
2023-04-16T04:05:41.207Z,41.01
2023-04-16T04:08:10.930Z,40.57
2023-04-16T04:10:43.335Z,40.37
2023-04-16T04:24:06.693Z,39.30
2023-04-16T04:26:39.013Z,40.02
2023-04-16T04:34:34.532Z,39.76
2023-04-16T04:37:06.429Z,39.35
2023-04-16T04:39:33.344Z,39.32
2023-04-16T04:42:03.455Z,39.70
2023-04-16T04:44:31.002Z,39.93
2023-04-16T04:46:58.972Z,39.53
2023-04-16T04:49:27.357Z,38.54
2023-04-16T04:51:54.372Z,39.18
2023-04-16T04:54:21.613Z,39.45
2023-04-16T04:56:49.652Z,38.39
2023-04-16T04:59:16.870Z,39.01
2023-04-16T05:01:44.705Z,38.96
2023-04-16T05:04:11.974Z,38.67
2023-04-16T05:06:39.083Z,38.76
2023-04-16T05:09:06.233Z,38.77
2023-04-16T05:11:35.093Z,38.23
2023-04-16T05:14:02.690Z,38.53
2023-04-16T05:16:29.730Z,38.03
2023-04-16T05:22:00.732Z,38.56
2023-04-16T05:24:28.948Z,37.47
2023-04-16T05:26:57.724Z,37.40
2023-04-16T05:29:25.043Z,37.95
2023-04-16T05:31:53.924Z,38.25
2023-04-16T05:34:30.403Z,38.91
2023-04-16T05:36:59.290Z,37.99
2023-04-16T05:39:26.448Z,37.24
2023-04-16T05:41:53.232Z,37.87
2023-04-16T05:44:20.531Z,37.75
2023-04-16T05:46:48.473Z,37.72
2023-04-16T05:49:20.194Z,37.46
2023-04-16T05:51:50.880Z,37.17
2023-04-16T05:54:22.956Z,36.19
2023-04-16T05:56:55.540Z,35.97
2023-04-16T05:59:23.064Z,36.40
2023-04-16T06:04:35.970Z,36.09
2023-04-16T06:07:03.546Z,35.65
2023-04-16T06:09:30.755Z,36.15
2023-04-16T06:12:01.948Z,35.48
2023-04-16T06:14:29.277Z,34.94
2023-04-16T06:16:56.495Z,34.86
2023-04-16T06:19:23.914Z,34.52
2023-04-16T06:21:52.279Z,34.18
2023-04-16T06:24:19.679Z,34.28
2023-04-16T06:26:46.742Z,34.45
2023-04-16T06:29:14.010Z,34.04
2023-04-16T06:34:26.694Z,33.19
2023-04-16T06:36:56.947Z,33.32
2023-04-16T06:39:24.364Z,31.93
2023-04-16T06:41:51.354Z,31.73
2023-04-16T06:44:18.188Z,32.13
2023-04-16T06:46:45.567Z,31.96
2023-04-16T06:49:12.775Z,31.65
2023-04-16T06:51:41.894Z,31.73
2023-04-16T06:54:08.915Z,31.90
2023-04-16T06:56:37.556Z,31.07
2023-04-16T06:59:04.929Z,31.39
2023-04-16T07:01:31.971Z,30.60
2023-04-16T07:03:59.242Z,30.14
2023-04-16T07:06:27.259Z,30.46
2023-04-16T07:08:54.086Z,30.06
2023-04-16T07:11:21.334Z,29.27
2023-04-16T07:13:48.253Z,28.01
2023-04-16T07:16:15.088Z,27.86
2023-04-16T07:18:41.988Z,26.53
2023-04-16T07:21:08.876Z,27.30
2023-04-16T07:23:35.888Z,25.39
2023-04-16T07:26:02.840Z,24.45
2023-04-16T07:28:29.712Z,24.89
2023-04-16T07:30:56.638Z,24.09
2023-04-16T07:33:24.321Z,23.95
2023-04-16T07:35:51.749Z,22.99
2023-04-16T07:38:19.250Z,23.16
2023-04-16T07:40:46.182Z,23.31
2023-04-16T07:43:13.768Z,23.26
2023-04-16T07:45:41.410Z,23.29
2023-04-16T07:48:08.494Z,24.02
2023-04-16T07:50:35.423Z,21.54
2023-04-16T07:53:20.991Z,22.04
2023-04-16T07:55:48.201Z,23.13
2023-04-16T07:58:15.123Z,23.05
2023-04-16T08:00:41.979Z,24.56
2023-04-16T08:03:09.033Z,22.98
2023-04-16T08:05:36.062Z,22.34
2023-04-16T08:08:03.139Z,23.31
2023-04-16T08:10:30.089Z,21.80
2023-04-16T08:12:57.059Z,21.51
2023-04-16T08:15:24.049Z,23.23
2023-04-16T08:17:51.067Z,22.12
2023-04-16T08:20:19.354Z,21.29
2023-04-16T08:22:46.606Z,20.64
2023-04-16T08:25:13.536Z,20.40
2023-04-16T08:27:40.737Z,21.26
2023-04-16T08:30:08.037Z,20.36
2023-04-16T08:32:34.972Z,20.99
2023-04-16T08:35:02.299Z,21.03
2023-04-16T08:37:29.877Z,20.48
2023-04-16T08:39:56.707Z,21.31
2023-04-16T08:42:49.023Z,21.91
2023-04-16T08:45:17.407Z,20.80
2023-04-16T08:47:46.263Z,21.03
2023-04-16T08:50:14.904Z,20.78
2023-04-16T08:53:08.174Z,21.21
2023-04-16T08:55:38.680Z,21.12
2023-04-16T08:58:16.364Z,20.38
2023-04-16T09:00:43.719Z,21.16
2023-04-16T09:03:11.302Z,21.36
2023-04-16T09:05:39.718Z,21.61
2023-04-16T09:08:06.967Z,22.06
2023-04-16T09:10:34.337Z,21.08
2023-04-16T09:13:01.440Z,20.91
2023-04-16T09:15:30.643Z,20.96
2023-04-16T09:17:59.925Z,20.94
2023-04-16T09:20:28.117Z,21.56
2023-04-16T09:22:57.247Z,21.18
2023-04-16T09:25:25.093Z,21.41
2023-04-16T09:27:52.434Z,21.64
2023-04-16T09:30:22.434Z,21.20
2023-04-16T09:32:50.393Z,21.07
2023-04-16T09:35:18.589Z,21.62
2023-04-16T09:37:55.006Z,21.50
2023-04-16T09:40:27.517Z,21.30
2023-04-16T09:43:03.125Z,21.66
2023-04-16T09:45:31.736Z,21.21
2023-04-16T09:48:03.315Z,21.42
2023-04-16T09:50:30.632Z,21.24
2023-04-16T09:53:02.560Z,20.58
2023-04-16T09:55:36.305Z,20.48
2023-04-16T09:58:03.497Z,20.86
2023-04-16T10:00:31.728Z,20.66
2023-04-16T10:03:07.692Z,20.82
2023-04-16T10:05:36.057Z,21.12
2023-04-16T10:08:03.815Z,20.91
2023-04-16T10:10:30.906Z,22.24
2023-04-16T10:12:59.625Z,21.07
2023-04-16T10:15:27.525Z,21.13
2023-04-16T10:17:54.906Z,21.12
2023-04-16T10:20:23.054Z,21.40
2023-04-16T10:22:50.190Z,20.42
2023-04-16T10:25:17.634Z,20.81
2023-04-16T10:27:56.886Z,20.66
2023-04-16T10:30:24.631Z,20.74
2023-04-16T10:32:52.189Z,20.81
2023-04-16T10:35:22.421Z,20.67
2023-04-16T10:37:52.492Z,20.43
2023-04-16T10:40:29.096Z,19.90
2023-04-16T10:42:59.701Z,19.94
2023-04-16T10:45:47.666Z,19.84
2023-04-16T10:51:03.759Z,19.75
2023-04-16T10:56:22.737Z,20.43
2023-04-16T11:07:21.360Z,19.81
2023-04-16T11:12:48.875Z,19.54
2023-04-16T11:17:57.660Z,19.97
2023-04-16T11:23:15.486Z,19.82
2023-04-16T11:25:44.614Z,19.58
2023-04-16T11:28:12.999Z,19.35
2023-04-16T11:30:41.846Z,19.04
2023-04-16T11:33:11.753Z,19.57
2023-04-16T11:35:52.231Z,20.06
2023-04-16T11:38:19.534Z,19.46
2023-04-16T11:40:51.325Z,18.81
2023-04-16T11:43:27.475Z,18.83
2023-04-16T11:45:58.916Z,19.34
2023-04-16T11:51:07.670Z,18.67
2023-04-16T12:04:43.759Z,18.20
2023-04-16T12:10:08.680Z,17.95
2023-04-16T12:12:37.967Z,17.66
2023-04-16T12:23:27.729Z,16.42
2023-04-16T12:25:57.622Z,17.23
2023-04-16T12:28:43.416Z,17.96
2023-04-16T12:34:04.547Z,17.11
2023-04-16T12:36:41.160Z,17.13
2023-04-16T12:39:09.859Z,17.06
2023-04-16T12:41:38.730Z,17.19
2023-04-16T12:47:11.296Z,17.86
2023-04-16T12:55:03.594Z,16.72
2023-04-16T12:57:39.986Z,17.24
2023-04-16T13:00:08.640Z,17.30
2023-04-16T13:02:40.539Z,16.75
2023-04-16T13:05:08.773Z,16.65
2023-04-16T13:13:01.125Z,16.93
2023-04-16T13:15:28.285Z,16.85
2023-04-16T13:17:56.569Z,16.97
2023-04-16T13:20:24.636Z,16.67
2023-04-16T13:22:51.886Z,16.91
2023-04-16T13:25:19.766Z,16.89
2023-04-16T13:27:56.264Z,16.75
2023-04-16T13:30:24.038Z,16.58
2023-04-16T13:32:51.353Z,16.88
2023-04-16T13:38:00.649Z,16.91
2023-04-16T13:40:28.736Z,16.73
2023-04-16T13:45:37.572Z,16.44
2023-04-16T13:48:05.219Z,16.64
2023-04-16T13:50:32.864Z,17.67
2023-04-16T13:53:00.220Z,16.43
2023-04-16T13:55:32.259Z,16.38
2023-04-16T13:58:00.059Z,16.17
2023-04-16T14:00:37.102Z,16.84
2023-04-16T14:03:15.458Z,16.71
2023-04-16T14:11:11.944Z,16.49
2023-04-16T14:13:39.588Z,16.74
2023-04-16T14:18:49.335Z,16.63
2023-04-16T15:41:18.029Z,20.02
2023-04-16T15:43:46.612Z,20.00
2023-04-16T15:46:19.789Z,20.02
2023-04-16T15:48:47.291Z,19.82
2023-04-16T15:51:16.047Z,19.85
2023-04-16T15:53:48.565Z,19.92
2023-04-16T15:56:20.375Z,20.37
2023-04-16T16:06:50.754Z,20.46
2023-04-16T16:12:00.715Z,20.71
2023-04-16T16:14:27.697Z,20.85
2023-04-16T16:16:54.877Z,20.67
2023-04-16T16:22:02.990Z,21.22
2023-04-16T16:24:32.161Z,21.16
2023-04-16T16:27:03.557Z,21.33
2023-04-16T16:29:31.918Z,21.30
2023-04-16T16:31:59.213Z,22.11
2023-04-16T16:34:28.068Z,21.85
2023-04-16T16:36:55.144Z,21.94
2023-04-16T16:39:26.389Z,22.24
2023-04-16T16:41:53.345Z,22.58
2023-04-16T16:44:20.759Z,22.22
2023-04-16T16:47:06.711Z,22.85
2023-04-16T16:49:33.709Z,22.19
2023-04-16T16:52:03.012Z,22.15
2023-04-16T16:54:29.817Z,23.04
2023-04-16T16:56:57.059Z,22.48
2023-04-16T16:59:24.310Z,22.45
2023-04-16T17:01:51.438Z,22.93
2023-04-16T17:04:20.345Z,23.23
2023-04-16T17:06:48.932Z,22.60
2023-04-16T17:09:16.973Z,22.79
2023-04-16T17:11:44.109Z,23.43
2023-04-16T17:14:30.419Z,22.81
2023-04-16T17:17:16.261Z,22.29
2023-04-16T17:19:44.230Z,23.36
2023-04-16T17:22:11.267Z,23.56
2023-04-16T17:24:38.693Z,23.39
2023-04-16T17:27:24.905Z,22.54
2023-04-16T17:30:11.139Z,22.94
2023-04-16T17:32:38.404Z,22.98
2023-04-16T17:35:24.252Z,23.03
2023-04-16T17:37:51.816Z,22.64
2023-04-16T17:40:18.844Z,23.18
2023-04-16T17:42:46.876Z,22.83
2023-04-16T17:45:13.857Z,22.94
2023-04-16T17:47:40.965Z,23.73
2023-04-16T17:50:08.617Z,24.44
2023-04-16T17:52:37.583Z,25.05
2023-04-16T17:55:05.233Z,24.39
2023-04-16T17:57:32.443Z,24.42
2023-04-16T18:00:17.927Z,24.59
2023-04-16T18:02:45.507Z,24.55
2023-04-16T18:05:31.372Z,24.65
2023-04-16T18:07:58.289Z,24.74
2023-04-16T18:10:25.319Z,24.40
2023-04-16T18:12:52.234Z,24.42
2023-04-16T18:15:19.264Z,24.52
2023-04-16T18:17:46.491Z,24.88
2023-04-16T18:20:17.023Z,24.92
2023-04-16T18:22:43.932Z,24.50
2023-04-16T18:25:34.502Z,24.57
2023-04-16T18:28:02.420Z,24.90
2023-04-16T18:30:49.541Z,25.37
2023-04-16T18:35:46.406Z,25.48
2023-04-16T18:38:16.456Z,25.67
2023-04-16T18:40:43.270Z,25.56
2023-04-16T18:43:10.151Z,25.57
2023-04-16T18:45:37.243Z,25.87
2023-04-16T18:48:04.314Z,25.66
2023-04-16T18:50:31.460Z,25.67
2023-04-16T18:52:58.317Z,25.95
2023-04-16T18:55:25.355Z,25.58
2023-04-16T18:57:52.335Z,25.66
2023-04-16T19:00:20.129Z,26.10
2023-04-16T19:02:47.852Z,26.05
2023-04-16T19:05:14.840Z,26.49
2023-04-16T19:07:41.964Z,25.70
2023-04-16T19:10:09.103Z,25.60
2023-04-16T19:12:36.261Z,25.81
2023-04-16T19:15:03.225Z,26.31
2023-04-16T19:17:30.562Z,25.86
2023-04-16T19:19:57.497Z,26.54
2023-04-16T19:22:24.366Z,27.38
2023-04-16T19:24:51.507Z,26.44
2023-04-16T19:27:18.454Z,26.20
2023-04-16T19:29:46.864Z,26.38
2023-04-16T19:32:14.560Z,26.63
2023-04-16T19:34:41.615Z,26.27
2023-04-16T19:37:08.489Z,26.54
2023-04-16T19:39:35.585Z,26.18
2023-04-16T19:42:02.770Z,25.97
2023-04-16T19:44:29.694Z,26.57
2023-04-16T19:46:56.702Z,26.85
2023-04-16T19:49:33.770Z,26.44
2023-04-16T19:52:01.612Z,26.14
2023-04-16T19:54:28.938Z,26.30
2023-04-16T19:56:57.255Z,26.95
2023-04-16T19:59:25.202Z,26.52
2023-04-16T20:01:52.044Z,26.50
2023-04-16T20:04:19.048Z,25.92
2023-04-16T20:06:46.108Z,26.73
2023-04-16T20:09:13.228Z,26.59
2023-04-16T20:11:40.243Z,27.21
2023-04-16T20:14:07.064Z,26.29
2023-04-16T20:16:34.074Z,26.97
2023-04-16T20:19:05.258Z,27.64
2023-04-16T20:21:34.153Z,28.24
2023-04-16T20:24:00.988Z,28.25
2023-04-16T20:26:28.551Z,27.60
2023-04-16T20:28:55.536Z,28.11
2023-04-16T20:31:22.539Z,27.85
2023-04-16T20:33:49.465Z,27.91
2023-04-16T20:36:16.321Z,27.37
2023-04-16T20:38:43.792Z,27.63
2023-04-16T20:41:11.146Z,27.58
2023-04-16T20:43:40.940Z,27.40
2023-04-16T20:46:08.648Z,28.04
2023-04-16T20:48:35.639Z,26.95
2023-04-16T20:51:03.826Z,27.21
2023-04-16T20:53:34.004Z,27.37
2023-04-16T20:56:01.087Z,27.59
2023-04-16T20:58:28.071Z,27.10
2023-04-16T21:00:55.771Z,26.77
2023-04-16T21:03:23.253Z,27.56
2023-04-16T21:05:53.885Z,27.96
2023-04-16T21:08:21.165Z,28.17
2023-04-16T21:10:48.179Z,27.91
2023-04-16T21:13:15.202Z,28.44
2023-04-16T21:15:44.963Z,29.55
2023-04-16T21:18:12.002Z,29.40
2023-04-16T21:20:39.245Z,29.39
2023-04-16T21:23:07.034Z,28.59
2023-04-16T21:25:33.941Z,28.32
2023-04-16T21:28:00.882Z,29.25
2023-04-16T21:30:27.858Z,29.47
2023-04-16T21:32:55.119Z,28.65
2023-04-16T21:35:21.991Z,28.27
2023-04-16T21:37:48.997Z,28.99
2023-04-16T21:40:15.980Z,29.29
2023-04-16T21:42:42.985Z,28.96
2023-04-16T21:45:10.544Z,29.72
2023-04-16T21:47:37.847Z,29.45
2023-04-16T21:50:04.941Z,29.21
2023-04-16T21:52:33.033Z,28.64
2023-04-16T21:55:00.517Z,29.09
2023-04-16T21:57:27.427Z,29.38
2023-04-16T21:59:54.253Z,28.87
2023-04-16T22:02:22.361Z,28.83
2023-04-16T22:04:50.742Z,28.38
2023-04-16T22:07:20.853Z,28.59
2023-04-16T22:09:47.725Z,28.23
2023-04-16T22:12:14.630Z,28.95
2023-04-16T22:14:49.082Z,29.29
2023-04-16T22:17:23.902Z,28.98
2023-04-16T22:19:51.041Z,29.58
2023-04-16T22:22:18.740Z,29.20
2023-04-16T22:24:46.809Z,28.83
2023-04-16T22:27:13.632Z,28.99
2023-04-16T22:29:40.545Z,29.02
2023-04-16T22:32:07.425Z,29.12
2023-04-16T22:34:34.378Z,29.03
2023-04-16T22:37:03.138Z,28.70
2023-04-16T22:39:30.975Z,28.94
2023-04-16T22:41:57.885Z,29.64
2023-04-16T22:44:24.895Z,29.84
2023-04-16T22:46:52.075Z,30.27
2023-04-16T22:49:18.969Z,29.53
2023-04-16T22:51:45.941Z,29.58
2023-04-16T22:54:13.987Z,29.60
2023-04-16T22:56:41.193Z,29.49
2023-04-16T22:59:08.291Z,29.30
2023-04-16T23:01:35.196Z,29.79
2023-04-16T23:04:02.275Z,29.06
2023-04-16T23:06:29.271Z,29.57
2023-04-16T23:08:56.204Z,30.07
2023-04-16T23:11:23.141Z,29.44
2023-04-16T23:13:49.942Z,29.83
2023-04-16T23:16:16.916Z,30.06
2023-04-16T23:18:43.855Z,30.35
2023-04-16T23:21:11.152Z,31.16
2023-04-16T23:23:38.039Z,30.02
2023-04-16T23:26:04.957Z,30.56
2023-04-16T23:28:31.796Z,29.95
2023-04-16T23:30:58.760Z,29.71
2023-04-16T23:33:25.836Z,30.43
2023-04-16T23:35:52.908Z,30.42
2023-04-16T23:38:19.797Z,30.69
2023-04-16T23:40:46.655Z,29.90
2023-04-16T23:43:13.550Z,30.06
2023-04-16T23:45:40.972Z,30.05
2023-04-16T23:48:07.850Z,30.17
2023-04-16T23:50:34.702Z,30.35
2023-04-16T23:53:01.492Z,30.69
2023-04-16T23:55:28.422Z,30.15
2023-04-16T23:57:55.393Z,29.92
